Time;durP1;ratioP1;P1;durP2;ratioP2;P2;SDS_P1;SDS_P2;PMS_P1;PMS_P2;Temp;Humidity;BMP_temperature;BMP_pressure;BME280_temperature;BME280_humidity;BME280_pressure;Samples;Min_cycle;Max_cycle;Signal;HPM_P1;HPM_P2
2021/08/29 00:00:18;;;;;;;7.85;6.28;;;;;;;12.47;92.16;101966.34;2091124;28;20020;-60
2021/08/29 00:01:18;;;;;;;10.77;7.13;;;;;;;12.50;92.36;101963.63;2099738;28;20021;-60
2021/08/29 00:02:19;;;;;;;13.03;7.23;;;;;;;12.51;92.03;101959.25;2099637;28;20484;-60
2021/08/29 00:03:19;;;;;;;8.23;6.83;;;;;;;12.52;92.43;101961.81;2099687;28;20020;-59
2021/08/29 00:04:19;;;;;;;10.13;7.10;;;;;;;12.54;92.23;101964.38;2090672;28;20021;-59
2021/08/29 00:05:19;;;;;;;12.80;9.20;;;;;;;12.55;92.27;101964.34;2090829;28;20025;-60
2021/08/29 00:06:20;;;;;;;11.30;7.63;;;;;;;12.56;92.65;101954.72;2099551;28;20106;-60
2021/08/29 00:07:20;;;;;;;9.80;7.70;;;;;;;12.57;92.42;101954.69;2099616;28;20060;-60
2021/08/29 00:08:20;;;;;;;7.93;6.73;;;;;;;12.58;92.25;101948.53;2099575;28;20016;-60
2021/08/29 00:09:20;;;;;;;10.97;7.73;;;;;;;12.59;92.30;101944.16;2099612;28;20048;-59
2021/08/29 00:10:21;;;;;;;10.88;7.88;;;;;;;12.60;91.83;101951.94;2099564;28;20048;-60
2021/08/29 00:11:23;;;;;;;8.95;7.63;;;;;;;12.62;91.81;101950.13;2099537;28;20035;-60
2021/08/29 00:12:23;;;;;;;9.95;7.57;;;;;;;12.64;92.01;101952.72;2090544;28;20401;-60
2021/08/29 00:13:24;;;;;;;8.93;7.17;;;;;;;12.68;92.03;101948.22;2090679;28;20108;-60
2021/08/29 00:14:24;;;;;;;11.35;8.07;;;;;;;12.68;92.59;101951.69;2090651;28;20283;-60
2021/08/29 00:15:24;;;;;;;11.87;7.33;;;;;;;12.70;92.61;101946.41;2090652;28;20037;-60
2021/08/29 00:16:24;;;;;;;9.07;7.17;;;;;;;12.73;92.34;101946.31;2099552;28;20496;-59
2021/08/29 00:17:25;;;;;;;9.90;7.40;;;;;;;12.75;91.99;101949.72;2099644;28;20025;-60
2021/08/29 00:18:25;;;;;;;12.20;7.40;;;;;;;12.76;92.43;101948.81;2099631;28;20027;-59
2021/08/29 00:19:26;;;;;;;12.20;7.13;;;;;;;12.77;91.97;101945.31;2099491;28;20043;-60
2021/08/29 00:20:26;;;;;;;5.97;5.37;;;;;;;12.79;91.52;101943.47;2099551;28;20436;-61
2021/08/29 00:21:26;;;;;;;8.73;7.03;;;;;;;12.83;91.53;101945.06;2099122;28;20306;-62
2021/08/29 00:22:26;;;;;;;6.63;5.83;;;;;;;12.86;91.21;101947.59;2099570;28;20383;-61
2021/08/29 00:23:27;;;;;;;8.87;6.60;;;;;;;12.90;91.55;101944.88;2099467;28;20090;-60
2021/08/29 00:24:28;;;;;;;7.53;6.82;;;;;;;12.90;91.02;101947.50;2099585;28;20119;-60
2021/08/29 00:25:28;;;;;;;10.53;7.17;;;;;;;12.91;91.45;101946.56;2099547;28;20024;-60
2021/08/29 00:26:28;;;;;;;11.47;6.67;;;;;;;12.92;91.27;101943.03;2099580;28;20481;-61
2021/08/29 00:27:28;;;;;;;9.17;6.20;;;;;;;12.92;91.45;101937.81;2099519;28;20465;-60
2021/08/29 00:28:29;;;;;;;11.17;7.37;;;;;;;12.93;91.21;101940.38;2099563;28;20027;-60
2021/08/29 00:29:29;;;;;;;9.80;7.17;;;;;;;12.94;91.08;101942.09;2090515;28;20074;-60
2021/08/29 00:30:30;;;;;;;8.50;6.53;;;;;;;12.95;91.02;101945.56;2090682;28;20021;-60
2021/08/29 00:31:30;;;;;;;6.87;6.17;;;;;;;12.97;91.27;101943.75;2099540;28;20470;-60
2021/08/29 00:32:30;;;;;;;9.87;6.70;;;;;;;12.99;90.65;101944.53;2099508;28;20040;-60
2021/08/29 00:33:30;;;;;;;8.20;6.93;;;;;;;12.99;91.36;101950.66;2099525;28;20420;-61
2021/08/29 00:34:31;;;;;;;9.90;7.90;;;;;;;13.00;90.97;101941.00;2099458;28;20474;-60
2021/08/29 00:35:33;;;;;;;11.90;7.70;;;;;;;13.00;90.98;101943.63;2099466;28;20063;-60
2021/08/29 00:36:33;;;;;;;7.70;6.93;;;;;;;13.00;91.12;101936.63;2099438;28;20021;-60
2021/08/29 00:37:33;;;;;;;10.03;6.67;;;;;;;13.03;91.25;101940.06;2099501;28;20108;-60
2021/08/29 00:38:34;;;;;;;12.37;7.20;;;;;;;13.03;91.48;101938.28;2099466;28;20099;-60
2021/08/29 00:39:35;;;;;;;13.47;7.37;;;;;;;13.04;91.12;101937.41;2099401;28;20464;-60
2021/08/29 00:40:35;;;;;;;;;;;;;;;13.05;91.26;101938.22;2099913;28;20294;-60
2021/08/29 00:41:37;;;;;;;11.05;6.03;;;;;;;13.05;91.05;101933.84;2099566;28;19959;-59
2021/08/29 00:42:37;;;;;;;11.35;7.15;;;;;;;13.07;91.27;101941.66;2099372;28;20056;-60
2021/08/29 00:43:39;;;;;;;15.60;7.73;;;;;;;13.08;91.69;101932.88;2099463;28;20035;-60
2021/08/29 00:44:39;;;;;;;12.38;7.35;;;;;;;13.07;91.10;101939.03;2099428;28;20032;-61
2021/08/29 00:45:39;;;;;;;12.53;6.93;;;;;;;13.09;91.00;101937.22;2099421;28;20024;-60
2021/08/29 00:46:42;;;;;;;13.13;6.57;;;;;;;13.09;91.25;101930.22;2099424;28;20107;-59
2021/08/29 00:47:42;;;;;;;10.05;7.75;;;;;;;13.10;91.15;101937.16;2099232;28;20032;-60
2021/08/29 00:48:48;;;;;;;9.43;7.23;;;;;;;13.11;91.25;101932.78;2099285;28;20029;-60
2021/08/29 00:49:48;;;;;;;8.30;7.38;;;;;;;13.12;91.39;101940.59;2099479;28;20051;-61
2021/08/29 00:50:49;;;;;;;8.17;7.20;;;;;;;13.12;90.76;101937.97;2099331;28;20029;-59
2021/08/29 00:51:51;;;;;;;9.15;7.65;;;;;;;13.14;91.05;101938.75;2099327;28;20027;-60
2021/08/29 00:52:51;;;;;;;7.65;6.57;;;;;;;13.17;90.97;101934.34;2090339;28;20025;-60
2021/08/29 00:53:53;;;;;;;10.47;6.70;;;;;;;13.16;91.11;101930.84;2090505;28;20017;-60
2021/08/29 00:54:53;;;;;;;7.88;7.07;;;;;;;13.18;91.47;101930.78;2099395;28;20462;-60
2021/08/29 00:55:56;;;;;;;9.20;6.40;;;;;;;13.14;91.55;101933.50;2099349;28;20025;-59
2021/08/29 00:56:58;;;;;;;10.68;6.97;;;;;;;13.17;91.24;101922.06;2099375;28;20036;-60
2021/08/29 00:57:58;;;;;;;;;;;;;;;13.18;91.31;101930.78;2099705;28;20020;-60
2021/08/29 00:58:59;;;;;;;8.40;7.03;;;;;;;13.19;91.58;101930.75;2099359;28;20357;-61
2021/08/29 00:59:59;;;;;;;8.40;6.18;;;;;;;13.21;91.38;101933.31;2099203;28;20032;-61
2021/08/29 01:01:00;;;;;;;9.60;6.93;;;;;;;13.20;90.92;101926.34;2099316;28;20368;-60
2021/08/29 01:02:13;;;;;;;13.10;7.70;;;;;;;13.22;91.80;101928.00;2099213;28;20035;-60
2021/08/29 01:03:26;;;;;;;10.65;7.43;;;;;;;13.24;91.33;101935.81;2099216;28;20432;-60
2021/08/29 01:04:34;;;;;;;10.40;8.70;;;;;;;13.24;91.65;101928.78;2090192;28;20575;-61
2021/08/29 01:05:39;;;;;;;7.22;5.30;;;;;;;13.25;91.50;101930.50;2091399;28;20037;-60
2021/08/29 01:06:49;;;;;;;9.02;7.05;;;;;;;13.25;91.03;101927.88;2090187;28;20016;-60
2021/08/29 01:08:02;;;;;;;8.63;6.32;;;;;;;13.28;91.25;101924.31;2091670;28;20394;-60
2021/08/29 01:09:07;;;;;;;12.07;6.72;;;;;;;13.27;91.56;101931.31;2099258;28;20395;-60
2021/08/29 01:10:12;;;;;;;13.85;7.63;;;;;;;13.27;91.44;101931.31;2090190;28;20025;-60
2021/08/29 01:11:24;;;;;;;9.63;6.45;;;;;;;13.29;92.33;101935.63;2090916;28;20077;-60
2021/08/29 01:12:27;;;;;;;11.10;8.00;;;;;;;13.28;91.97;101934.81;2090079;28;20025;-59
2021/08/29 01:13:32;;;;;;;7.72;6.20;;;;;;;13.29;91.50;101930.41;2090630;28;20036;-61
2021/08/29 01:14:34;;;;;;;11.35;6.07;;;;;;;13.30;91.49;101938.22;2099004;28;20036;-60
2021/08/29 01:15:36;;;;;;;9.18;7.18;;;;;;;13.30;91.90;101929.47;2098971;28;20059;-60
2021/08/29 01:16:38;;;;;;;11.38;8.10;;;;;;;13.31;91.57;101929.41;2099053;28;20395;-59
2021/08/29 01:17:43;;;;;;;7.45;6.68;;;;;;;13.31;91.33;101923.34;2099076;28;20025;-59
2021/08/29 01:18:45;;;;;;;14.52;6.97;;;;;;;13.32;91.26;101925.91;2099026;28;20031;-59
2021/08/29 01:19:56;;;;;;;10.25;7.38;;;;;;;13.33;91.13;101924.13;2099073;28;20032;-61
2021/08/29 01:21:05;;;;;;;13.43;8.60;;;;;;;13.33;91.70;101927.63;2098995;28;20055;-61
2021/08/29 01:22:08;;;;;;;9.15;6.55;;;;;;;13.33;91.51;101927.63;2099055;28;20025;-59
2021/08/29 01:23:09;;;;;;;8.60;6.35;;;;;;;13.34;91.51;101924.06;2098986;28;20016;-60
2021/08/29 01:24:14;;;;;;;10.77;7.00;;;;;;;13.33;91.47;101918.88;2098967;28;20496;-60
2021/08/29 01:25:21;;;;;;;12.02;8.38;;;;;;;13.34;91.84;101923.25;2099112;28;20017;-59
2021/08/29 01:26:43;;;;;;;11.60;6.85;;;;;;;13.36;91.47;101921.41;2099048;28;20024;-60
2021/08/29 01:27:49;;;;;;;8.57;6.07;;;;;;;13.36;91.63;101922.25;2098934;28;20031;-60
2021/08/29 01:28:54;;;;;;;11.75;7.15;;;;;;;13.37;91.54;101917.84;2098942;28;20032;-60
2021/08/29 01:29:56;;;;;;;10.52;7.13;;;;;;;13.38;91.71;101927.44;2099053;28;20025;-61
2021/08/29 01:30:56;;;;;;;9.57;6.55;;;;;;;13.36;91.55;101927.50;2099092;28;20116;-59
2021/08/29 01:31:58;;;;;;;8.50;5.78;;;;;;;13.37;91.58;101926.59;2099001;28;20031;-61
2021/08/29 01:33:00;;;;;;;10.52;7.68;;;;;;;13.37;91.41;101923.97;2098200;28;20017;-61
2021/08/29 01:34:07;;;;;;;12.40;7.50;;;;;;;13.36;91.31;101922.25;2098807;28;20024;-61
2021/08/29 01:35:09;;;;;;;8.73;6.07;;;;;;;13.37;91.10;101917.84;2101797;28;20028;-59
2021/08/29 01:36:09;;;;;;;12.77;7.43;;;;;;;13.36;91.22;101924.88;2098875;28;20030;-61
2021/08/29 01:37:11;;;;;;;12.48;7.60;;;;;;;13.36;91.41;101922.25;2098985;28;20063;-60
2021/08/29 01:38:11;;;;;;;9.38;6.93;;;;;;;13.35;91.48;101925.78;2098984;28;20477;-60
2021/08/29 01:39:12;;;;;;;11.32;7.03;;;;;;;13.35;91.30;101920.53;2089895;28;20025;-61
2021/08/29 01:40:13;;;;;;;10.68;6.25;;;;;;;13.35;91.65;101925.78;2090138;28;20021;-60
2021/08/29 01:41:16;;;;;;;9.82;6.70;;;;;;;13.35;91.29;101917.91;2098993;28;20091;-59
2021/08/29 01:42:19;;;;;;;13.35;7.40;;;;;;;13.34;91.40;101924.06;2098818;28;20025;-60
2021/08/29 01:43:20;;;;;;;14.13;7.55;;;;;;;13.34;91.38;101916.22;2098810;28;20020;-60
2021/08/29 01:44:21;;;;;;;9.40;6.60;;;;;;;13.34;91.39;101918.81;2098884;28;20024;-60
2021/08/29 01:45:22;;;;;;;11.80;7.20;;;;;;;13.34;91.12;101908.34;2098882;28;20028;-60
2021/08/29 01:46:23;;;;;;;9.02;6.97;;;;;;;13.36;91.24;101922.25;2098919;28;20027;-60
2021/08/29 01:47:24;;;;;;;8.98;6.70;;;;;;;13.35;91.20;101920.53;2098880;28;20020;-60
2021/08/29 01:48:24;;;;;;;8.95;7.05;;;;;;;13.36;91.57;101917.03;2098782;28;20131;-60
2021/08/29 01:49:26;;;;;;;8.05;5.65;;;;;;;13.35;91.63;101915.28;2089916;28;20013;-59
2021/08/29 01:50:27;;;;;;;8.90;6.75;;;;;;;13.34;91.51;101918.81;2090124;28;20059;-60
2021/08/29 01:51:27;;;;;;;10.90;6.97;;;;;;;13.34;91.14;101913.59;2089952;28;20056;-60
2021/08/29 01:52:28;;;;;;;14.37;7.07;;;;;;;13.34;91.76;101918.81;2090021;28;20478;-61
2021/08/29 01:53:29;;;;;;;12.23;7.37;;;;;;;13.33;91.85;101917.13;2098779;28;20024;-62
2021/08/29 01:54:29;;;;;;;;;;;;;;;13.33;91.79;101914.50;2099259;28;20052;-60
2021/08/29 01:55:29;;;;;;;11.43;7.23;;;;;;;13.35;91.57;101917.06;2098840;28;19954;-60
2021/08/29 01:56:30;;;;;;;8.67;6.20;;;;;;;13.34;91.48;101913.59;2098754;28;20497;-61
2021/08/29 01:57:30;;;;;;;10.55;7.25;;;;;;;13.36;91.34;101918.78;2098761;28;20020;-60
2021/08/29 01:58:30;;;;;;;9.97;6.93;;;;;;;13.35;91.16;101920.53;2098828;28;20478;-60
2021/08/29 01:59:31;;;;;;;8.93;7.03;;;;;;;13.35;91.74;101914.44;2089813;28;20029;-60
2021/08/29 02:00:48;;;;;;;10.30;7.35;;;;;;;13.34;92.04;101918.00;2089845;28;20426;-59
2021/08/29 02:01:49;;;;;;;9.18;6.82;;;;;;;13.35;91.83;101920.53;2098809;28;20025;-60
2021/08/29 02:02:49;;;;;;;13.67;8.20;;;;;;;13.33;91.90;101917.13;2098779;28;20032;-59
2021/08/29 02:03:50;;;;;;;7.73;6.93;;;;;;;13.35;92.20;101917.91;2098794;28;20063;-60
2021/08/29 02:04:50;;;;;;;12.75;7.20;;;;;;;13.35;92.10;101923.16;2098940;28;20024;-60
2021/08/29 02:05:56;;;;;;;16.77;8.53;;;;;;;13.37;92.01;101923.09;2098781;28;20032;-60
2021/08/29 02:07:05;;;;;;;11.30;7.10;;;;;;;13.37;92.50;101925.72;2098728;28;20020;-60
2021/08/29 02:08:07;;;;;;;11.27;7.28;;;;;;;13.37;92.21;101923.97;2089772;28;20102;-60
2021/08/29 02:09:10;;;;;;;9.57;6.68;;;;;;;13.38;92.29;101924.81;2090023;28;20024;-61
2021/08/29 02:10:12;;;;;;;9.63;6.97;;;;;;;13.38;92.11;101920.41;2098800;28;20059;-60
2021/08/29 02:11:14;;;;;;;13.95;6.68;;;;;;;13.39;92.18;101922.13;2089791;28;20025;-61
2021/08/29 02:12:15;;;;;;;;;;;;;;;13.39;92.12;101922.13;2090225;28;20021;-59
2021/08/29 02:13:21;;;;;;;8.65;6.00;;;;;;;13.43;91.59;101922.00;2089783;28;19952;-59
2021/08/29 02:14:26;;;;;;;10.23;7.13;;;;;;;13.43;91.56;101922.00;2090623;28;20024;-60
2021/08/29 02:15:30;;;;;;;11.10;6.80;;;;;;;13.44;91.80;101923.75;2098506;28;20071;-61
2021/08/29 02:16:39;;;;;;;11.73;6.95;;;;;;;13.45;92.05;101930.69;2098670;28;20059;-60
2021/08/29 02:17:40;;;;;;;8.90;6.97;;;;;;;13.46;92.03;101927.16;2098668;28;20017;-59
2021/08/29 02:18:43;;;;;;;10.35;7.28;;;;;;;13.45;92.10;101926.28;2098645;28;20052;-60
2021/08/29 02:19:43;;;;;;;;;;;;;;;13.48;91.90;101925.34;2099052;28;20028;-60
2021/08/29 02:20:48;;;;;;;7.38;5.72;;;;;;;13.47;92.28;101928.84;2098646;28;19965;-60
2021/08/29 02:21:49;;;;;;;10.85;7.63;;;;;;;13.47;92.13;101923.59;2089672;28;20520;-60
2021/08/29 02:22:51;;;;;;;14.25;7.60;;;;;;;13.48;92.27;101928.84;2081625;28;20029;-60
2021/08/29 02:23:52;;;;;;;12.15;7.07;;;;;;;13.47;92.04;101918.38;2089926;28;20021;-60
2021/08/29 02:24:52;;;;;;;11.05;6.07;;;;;;;13.47;92.17;101924.47;2098503;28;20097;-60
2021/08/29 02:25:53;;;;;;;10.37;7.03;;;;;;;13.47;92.34;101927.09;2089626;28;20033;-60
2021/08/29 02:26:54;;;;;;;12.25;7.18;;;;;;;13.47;92.02;101919.22;2089734;28;20341;-59
2021/08/29 02:27:54;;;;;;;10.40;7.90;;;;;;;13.48;92.61;101925.34;2098630;28;20024;-60
2021/08/29 02:28:55;;;;;;;10.70;6.23;;;;;;;13.49;92.04;101922.66;2098694;28;20056;-60
2021/08/29 02:29:56;;;;;;;9.05;6.55;;;;;;;13.50;92.19;101923.53;2098569;28;20491;-61
2021/08/29 02:30:56;;;;;;;7.97;5.97;;;;;;;13.51;91.90;101925.22;2098654;28;20099;-59
2021/08/29 02:31:57;;;;;;;10.93;6.57;;;;;;;13.52;92.10;101926.97;2098614;28;20024;-60
2021/08/29 02:32:59;;;;;;;9.48;6.25;;;;;;;13.55;91.55;101924.19;2098518;28;20470;-60
2021/08/29 02:33:59;;;;;;;12.05;7.38;;;;;;;13.54;91.62;101925.13;2098488;28;20024;-61
2021/08/29 02:34:59;;;;;;;10.50;7.10;;;;;;;13.56;91.62;101922.44;2098677;28;20032;-60
2021/08/29 02:36:02;;;;;;;10.47;7.00;;;;;;;13.55;91.88;101920.75;2098541;28;20062;-61
2021/08/29 02:37:04;;;;;;;15.57;6.80;;;;;;;13.55;92.04;101924.19;2098493;28;20028;-60
2021/08/29 02:38:05;;;;;;;11.38;6.47;;;;;;;13.55;91.93;101923.38;2098515;28;20028;-60
2021/08/29 02:39:07;;;;;;;9.30;6.50;;;;;;;13.56;91.81;101918.06;2098459;28;20031;-60
2021/08/29 02:40:09;;;;;;;8.15;5.68;;;;;;;13.57;91.89;101925.00;2098522;28;20024;-59
2021/08/29 02:41:10;;;;;;;10.30;6.15;;;;;;;13.58;91.50;101920.63;2098498;28;20063;-60
2021/08/29 02:42:11;;;;;;;10.48;6.18;;;;;;;13.60;91.87;101919.66;2098577;28;20043;-60
2021/08/29 02:43:12;;;;;;;9.00;6.35;;;;;;;13.60;92.00;101921.41;2098441;28;20021;-60
2021/08/29 02:44:12;;;;;;;;;;;;;;;13.61;91.89;101921.38;2098858;28;20032;-60
2021/08/29 02:45:13;;;;;;;11.33;6.43;;;;;;;13.62;91.79;101925.69;2098579;28;19957;-61
2021/08/29 02:46:13;;;;;;;10.43;6.30;;;;;;;13.63;91.55;101921.31;2089567;28;20128;-60
2021/08/29 02:47:13;;;;;;;11.33;5.73;;;;;;;13.63;91.81;101926.56;2089677;28;20024;-61
2021/08/29 02:48:15;;;;;;;11.77;6.03;;;;;;;13.64;91.81;101921.25;2098431;28;20382;-60
2021/08/29 02:49:22;;;;;;;10.00;5.90;;;;;;;13.66;91.69;101918.56;2098302;28;20046;-60
2021/08/29 02:50:23;;;;;;;13.30;6.88;;;;;;;13.67;91.45;101922.91;2089557;28;20121;-60
2021/08/29 02:51:24;;;;;;;8.77;5.55;;;;;;;13.66;91.69;101915.94;2089664;28;20032;-60
2021/08/29 02:52:24;;;;;;;8.43;5.63;;;;;;;13.67;91.46;101922.03;2098499;28;20381;-60
2021/08/29 02:53:25;;;;;;;10.90;6.30;;;;;;;13.68;91.41;101918.50;2089589;28;20025;-59
2021/08/29 02:54:27;;;;;;;13.07;6.43;;;;;;;13.67;91.42;101914.16;2089603;28;20524;-60
2021/08/29 02:55:27;;;;;;;;;;;;;;;13.67;91.47;101906.28;2098835;28;20039;-61
2021/08/29 02:56:30;;;;;;;9.30;6.63;;;;;;;13.68;91.35;101911.47;2098568;28;20292;-60
2021/08/29 02:57:33;;;;;;;10.63;6.38;;;;;;;13.69;91.47;101907.09;2098420;28;20447;-60
2021/08/29 02:58:34;;;;;;;12.48;6.97;;;;;;;13.71;91.42;101907.88;2098582;28;20052;-60
2021/08/29 02:59:35;;;;;;;8.98;6.43;;;;;;;13.70;91.36;101904.44;2098404;28;20355;-61
2021/08/29 03:00:35;;;;;;;11.48;7.80;;;;;;;13.72;91.37;101907.00;2098468;28;20128;-60
2021/08/29 03:01:35;;;;;;;12.00;6.22;;;;;;;13.71;91.36;101905.25;2089435;28;20025;-60
2021/08/29 03:02:36;;;;;;;12.40;8.23;;;;;;;13.71;91.40;101910.50;2089588;28;20029;-60
2021/08/29 03:03:36;;;;;;;9.40;6.53;;;;;;;13.70;91.61;101900.94;2098383;28;20040;-60
2021/08/29 03:04:37;;;;;;;8.82;6.45;;;;;;;13.71;91.64;101905.25;2098448;28;20035;-60
2021/08/29 03:05:38;;;;;;;7.90;6.53;;;;;;;13.72;91.34;101907.00;2098430;28;20056;-60
2021/08/29 03:06:39;;;;;;;10.77;6.90;;;;;;;13.71;91.42;101905.25;2098476;28;20063;-61
2021/08/29 03:07:39;;;;;;;8.07;6.43;;;;;;;13.71;91.22;101906.13;2089485;28;20021;-59
2021/08/29 03:08:40;;;;;;;10.50;6.47;;;;;;;13.71;91.33;101905.25;2089538;28;20517;-60
2021/08/29 03:09:40;;;;;;;15.13;6.07;;;;;;;13.72;91.67;101901.75;2089461;28;20025;-60
2021/08/29 03:10:40;;;;;;;10.00;6.20;;;;;;;13.73;91.77;101903.44;2089553;28;20051;-60
2021/08/29 03:11:41;;;;;;;10.03;6.13;;;;;;;13.74;90.99;101906.00;2098407;28;20082;-60
2021/08/29 03:12:42;;;;;;;11.98;7.13;;;;;;;13.75;91.36;101904.22;2098259;28;20056;-60
2021/08/29 03:13:43;;;;;;;11.55;6.90;;;;;;;13.75;91.52;101898.97;2098364;28;20032;-60
2021/08/29 03:14:44;;;;;;;9.85;6.18;;;;;;;13.75;91.18;101906.84;2098424;28;20025;-60
2021/08/29 03:15:44;;;;;;;7.60;6.13;;;;;;;13.77;91.43;101894.53;2098288;28;20474;-61
2021/08/29 03:16:45;;;;;;;10.30;6.75;;;;;;;13.77;91.48;101907.66;2098368;28;20044;-61
2021/08/29 03:17:45;;;;;;;10.77;6.18;;;;;;;13.77;91.43;101899.78;2098341;28;20170;-60
2021/08/29 03:18:47;;;;;;;11.33;6.37;;;;;;;13.77;91.31;101899.78;2098298;28;20102;-60
2021/08/29 03:19:50;;;;;;;10.73;6.82;;;;;;;13.78;91.38;101901.50;2098129;28;20302;-61
2021/08/29 03:20:51;;;;;;;7.53;6.65;;;;;;;13.78;91.34;101894.47;2098288;28;20044;-60
2021/08/29 03:21:51;;;;;;;6.22;5.63;;;;;;;13.79;91.30;101895.31;2098352;28;20386;-60
2021/08/29 03:22:52;;;;;;;6.40;4.90;;;;;;;13.80;90.80;101894.44;2098351;28;20068;-60
2021/08/29 03:23:53;;;;;;;10.20;6.35;;;;;;;13.81;91.07;101896.13;2089360;28;20021;-60
2021/08/29 03:24:53;;;;;;;11.50;6.47;;;;;;;13.81;90.88;101906.63;2089436;28;20033;-60
2021/08/29 03:25:54;;;;;;;11.27;7.60;;;;;;;13.80;91.10;101897.03;2098301;28;20052;-60
2021/08/29 03:26:54;;;;;;;11.30;6.75;;;;;;;13.78;91.43;101897.09;2098308;28;20043;-60
2021/08/29 03:27:55;;;;;;;9.55;6.10;;;;;;;13.81;90.93;101897.88;2098280;28;20056;-59
2021/08/29 03:28:55;;;;;;;6.60;5.97;;;;;;;13.80;91.26;101897.03;2098320;28;20097;-60
2021/08/29 03:29:55;;;;;;;12.63;7.68;;;;;;;13.80;91.21;101902.28;2098384;28;20028;-60
2021/08/29 03:30:56;;;;;;;12.10;7.50;;;;;;;13.80;91.02;101899.66;2098335;28;20024;-61
2021/08/29 03:31:58;;;;;;;9.85;6.80;;;;;;;13.80;91.33;101898.81;2098341;28;20039;-60
2021/08/29 03:32:58;;;;;;;9.93;6.10;;;;;;;13.79;91.15;101903.19;2089311;28;20107;-60
2021/08/29 03:33:59;;;;;;;9.73;6.30;;;;;;;13.75;91.15;101894.59;2089413;28;20024;-59
2021/08/29 03:35:01;;;;;;;;;;;;;;;13.75;91.21;101891.09;2098922;28;20028;-61
2021/08/29 03:36:02;;;;;;;7.82;6.20;;;;;;;13.77;91.18;101894.53;2098376;28;19916;-61
2021/08/29 03:37:05;;;;;;;8.35;6.20;;;;;;;13.77;91.19;101894.53;2098292;28;20029;-60
2021/08/29 03:38:06;;;;;;;8.55;6.07;;;;;;;13.77;91.08;101889.28;2098264;28;20036;-60
2021/08/29 03:39:07;;;;;;;7.82;6.05;;;;;;;13.78;90.98;101886.63;2098224;28;20030;-59
2021/08/29 03:40:07;;;;;;;9.40;6.10;;;;;;;13.80;90.92;101885.69;2098223;28;20070;-60
2021/08/29 03:41:08;;;;;;;8.35;6.25;;;;;;;13.80;91.09;101888.31;2089330;28;20072;-59
2021/08/29 03:42:09;;;;;;;10.82;6.50;;;;;;;13.80;91.11;101888.31;2089464;28;20024;-61
2021/08/29 03:43:10;;;;;;;7.45;6.15;;;;;;;13.79;90.98;101892.69;2089274;28;20017;-60
2021/08/29 03:44:12;;;;;;;10.43;5.83;;;;;;;13.79;90.98;101887.44;2089398;28;20072;-60
2021/08/29 03:45:13;;;;;;;10.77;6.43;;;;;;;13.80;91.17;101890.94;2098272;28;20055;-60
2021/08/29 03:46:15;;;;;;;10.18;5.13;;;;;;;13.79;91.26;101892.69;2098287;28;20402;-60
2021/08/29 03:47:16;;;;;;;10.65;6.15;;;;;;;13.78;91.27;101888.38;2089323;28;20031;-59
2021/08/29 03:48:16;;;;;;;10.02;5.38;;;;;;;13.78;91.32;101885.75;2081056;28;20038;-60
2021/08/29 03:49:17;;;;;;;11.97;6.80;;;;;;;13.79;91.20;101887.44;2089070;28;20063;-59
2021/08/29 03:50:18;;;;;;;7.57;5.18;;;;;;;13.80;91.22;101888.31;2089430;28;20283;-59
2021/08/29 03:51:19;;;;;;;13.30;6.63;;;;;;;13.79;91.64;101882.19;2098297;28;20500;-60
2021/08/29 03:52:20;;;;;;;8.75;5.28;;;;;;;13.81;91.10;101890.00;2098292;28;20025;-60
2021/08/29 03:53:20;;;;;;;8.35;7.03;;;;;;;13.81;91.33;101896.13;2089242;28;20025;-60
2021/08/29 03:54:21;;;;;;;11.57;6.85;;;;;;;13.81;91.18;101883.00;2081076;28;20095;-60
2021/08/29 03:55:22;;;;;;;9.88;6.05;;;;;;;13.80;91.29;101883.94;2089360;28;20478;-60
2021/08/29 03:56:22;;;;;;;9.02;6.00;;;;;;;13.81;91.33;101882.16;2098659;28;20465;-60
2021/08/29 03:57:23;;;;;;;7.43;5.68;;;;;;;13.81;91.14;101885.63;2099733;28;20114;-60
2021/08/29 03:58:24;;;;;;;10.23;6.65;;;;;;;13.83;90.99;101883.81;2099843;28;20095;-60
2021/08/29 03:59:24;;;;;;;14.23;6.55;;;;;;;13.84;90.99;101880.28;2099725;28;20052;-60
2021/08/29 04:00:25;;;;;;;11.30;7.33;;;;;;;13.86;90.95;101890.72;2099742;28;20017;-60
2021/08/29 04:01:25;;;;;;;10.23;6.03;;;;;;;13.87;90.87;101882.78;2099617;28;20680;-60
2021/08/29 04:02:26;;;;;;;9.60;6.03;;;;;;;13.87;90.71;101885.41;2099755;28;20382;-60
2021/08/29 04:03:26;;;;;;;8.97;6.03;;;;;;;13.86;90.95;101881.03;2099612;28;20284;-61
2021/08/29 04:04:27;;;;;;;10.05;6.95;;;;;;;13.87;90.72;101882.78;2099698;28;20369;-61
2021/08/29 04:05:28;;;;;;;12.15;7.32;;;;;;;13.86;90.83;101878.41;2099727;28;20036;-60
2021/08/29 04:06:30;;;;;;;10.60;6.43;;;;;;;13.86;90.71;101885.47;2099702;28;20600;-59
2021/08/29 04:07:31;;;;;;;9.65;6.75;;;;;;;13.84;90.93;101879.41;2099691;28;20270;-60
2021/08/29 04:08:36;;;;;;;11.23;6.20;;;;;;;13.85;90.98;101875.84;2099690;28;20024;-60
2021/08/29 04:09:37;;;;;;;8.63;6.38;;;;;;;13.86;90.71;101878.41;2099678;28;20513;-60
2021/08/29 04:10:42;;;;;;;9.50;5.60;;;;;;;13.87;90.56;101877.53;2099675;28;20048;-59
2021/08/29 04:11:43;;;;;;;9.77;6.38;;;;;;;13.86;90.75;101874.97;2090745;28;20025;-59
2021/08/29 04:12:44;;;;;;;;;;;;;;;13.87;90.54;101876.66;2091325;28;20020;-59
2021/08/29 04:13:44;;;;;;;9.27;6.73;;;;;;;13.89;90.43;101882.72;2099649;28;19909;-60
2021/08/29 04:14:45;;;;;;;10.25;6.85;;;;;;;13.89;90.53;101883.56;2099626;28;20039;-59
2021/08/29 04:15:46;;;;;;;12.30;6.72;;;;;;;13.89;90.61;101877.47;2090630;28;20080;-60
2021/08/29 04:16:49;;;;;;;7.68;5.65;;;;;;;13.89;90.12;101874.84;2090736;28;20029;-60
2021/08/29 04:17:49;;;;;;;9.00;5.95;;;;;;;13.92;90.31;101879.94;2099640;28;20029;-60
2021/08/29 04:18:50;;;;;;;10.05;5.97;;;;;;;13.94;90.32;101879.88;2099523;28;20028;-60
2021/08/29 04:19:51;;;;;;;;;;;;;;;13.94;90.36;101879.88;2100082;28;20083;-59
2021/08/29 04:20:52;;;;;;;13.43;7.38;;;;;;;13.95;90.22;101881.59;2090723;28;19924;-60
2021/08/29 04:21:54;;;;;;;11.45;5.53;;;;;;;13.95;90.17;101871.09;2090804;28;20059;-60
2021/08/29 04:22:54;;;;;;;9.73;6.20;;;;;;;13.96;90.36;101878.06;2099622;28;20021;-59
2021/08/29 04:23:55;;;;;;;9.30;6.03;;;;;;;13.95;89.82;101876.34;2099554;28;20461;-60
2021/08/29 04:24:55;;;;;;;6.95;5.55;;;;;;;13.96;90.03;101878.06;2099552;28;20028;-59
2021/08/29 04:25:56;;;;;;;11.23;5.47;;;;;;;13.95;90.02;101871.09;2099494;28;20024;-59
2021/08/29 04:26:56;;;;;;;9.38;5.47;;;;;;;13.94;89.90;101869.41;2090667;28;20381;-60
2021/08/29 04:27:57;;;;;;;9.27;6.00;;;;;;;13.94;89.80;101874.63;2090683;28;20126;-60
2021/08/29 04:28:57;;;;;;;9.55;6.60;;;;;;;13.93;90.22;101876.44;2099524;28;20162;-60
2021/08/29 04:29:58;;;;;;;12.05;6.95;;;;;;;13.92;90.34;101866.00;2099517;28;20046;-60
2021/08/29 04:31:02;;;;;;;10.70;5.17;;;;;;;13.92;90.11;101866.81;2099539;28;20021;-60
2021/08/29 04:32:03;;;;;;;7.25;6.28;;;;;;;13.93;90.31;101870.31;2099484;28;20357;-59
2021/08/29 04:33:03;;;;;;;11.80;6.85;;;;;;;13.92;90.18;101866.00;2099525;28;20037;-60
2021/08/29 04:34:08;;;;;;;9.87;6.77;;;;;;;13.92;90.40;101866.81;2099457;28;20031;-61
2021/08/29 04:35:08;;;;;;;13.38;7.20;;;;;;;13.92;90.23;101866.81;2099463;28;20025;-60
2021/08/29 04:36:08;;;;;;;11.20;6.50;;;;;;;13.90;90.47;101859.00;2099446;28;20540;-60
2021/08/29 04:37:09;;;;;;;10.33;6.57;;;;;;;13.92;90.35;101860.75;2099492;28;20020;-59
2021/08/29 04:38:09;;;;;;;14.25;7.22;;;;;;;13.90;90.58;101864.25;2090475;28;20023;-58
2021/08/29 04:39:10;;;;;;;11.67;7.83;;;;;;;13.92;90.57;101863.38;2082202;28;20022;-62
2021/08/29 04:40:10;;;;;;;12.07;6.73;;;;;;;13.92;90.62;101860.75;2090535;28;20040;-60
2021/08/29 04:41:11;;;;;;;10.27;6.22;;;;;;;13.92;90.59;101858.13;2099498;28;20496;-60
2021/08/29 04:42:11;;;;;;;10.30;6.83;;;;;;;13.93;90.63;101865.94;2099452;28;20016;-60
2021/08/29 04:43:11;;;;;;;8.40;6.07;;;;;;;13.95;90.63;101860.59;2099364;28;20398;-60
2021/08/29 04:44:12;;;;;;;8.87;6.33;;;;;;;13.95;90.77;101868.47;2099514;28;20104;-60
2021/08/29 04:45:12;;;;;;;8.57;7.05;;;;;;;13.95;90.74;101860.59;2099404;28;20530;-61
2021/08/29 04:46:14;;;;;;;8.40;7.10;;;;;;;13.94;90.50;101861.53;2099427;28;20428;-60